createdAt,value
2022-08-26T00:01:33.210Z,4.63
2022-08-26T00:04:21.507Z,5.53
2022-08-26T00:07:07.737Z,4.78
2022-08-26T00:09:55.398Z,5.00
2022-08-26T00:12:41.456Z,5.13
2022-08-26T00:15:27.616Z,5.28
2022-08-26T00:18:21.887Z,4.80
2022-08-26T00:21:09.943Z,5.00
2022-08-26T00:23:56.394Z,5.45
2022-08-26T00:26:42.964Z,5.25
2022-08-26T00:29:30.498Z,4.75
2022-08-26T00:32:20.935Z,5.13
2022-08-26T00:35:07.360Z,4.72
2022-08-26T00:37:54.875Z,5.80
2022-08-26T00:40:51.756Z,5.55
2022-08-26T00:43:47.579Z,5.30
2022-08-26T00:46:36.947Z,5.32
2022-08-26T00:49:34.658Z,6.03
2022-08-26T00:52:21.936Z,5.60
2022-08-26T00:55:20.171Z,6.03
2022-08-26T00:58:07.575Z,6.00
2022-08-26T01:00:54.211Z,5.88
2022-08-26T01:03:41.030Z,5.07
2022-08-26T01:06:28.118Z,5.50
2022-08-26T01:09:14.637Z,5.88
2022-08-26T01:12:01.927Z,5.82
2022-08-26T01:14:47.881Z,5.20
2022-08-26T01:17:37.406Z,4.63
2022-08-26T01:20:27.784Z,5.40
2022-08-26T01:23:15.171Z,5.10
2022-08-26T01:26:19.950Z,5.35
2022-08-26T01:29:06.965Z,6.38
2022-08-26T01:31:57.355Z,5.07
2022-08-26T01:34:43.367Z,5.50
2022-08-26T01:37:33.244Z,5.43
2022-08-26T01:40:21.706Z,5.57
2022-08-26T01:43:08.828Z,5.60
2022-08-26T01:45:57.010Z,5.18
2022-08-26T01:48:44.801Z,5.53
2022-08-26T01:51:31.722Z,4.75
2022-08-26T01:54:18.565Z,5.82
2022-08-26T01:57:08.005Z,5.55
2022-08-26T01:59:56.430Z,5.28
2022-08-26T02:02:43.543Z,5.95
2022-08-26T02:05:29.958Z,5.25
2022-08-26T02:08:24.572Z,5.63
2022-08-26T02:11:12.107Z,6.60
2022-08-26T02:14:02.507Z,5.53
2022-08-26T02:16:51.495Z,5.03
2022-08-26T02:19:39.522Z,5.50
2022-08-26T02:22:25.442Z,6.80
2022-08-26T02:25:16.682Z,4.47
2022-08-26T02:28:02.710Z,5.32
2022-08-26T02:30:49.059Z,5.55
2022-08-26T02:33:35.221Z,5.40
2022-08-26T02:36:23.692Z,5.35
2022-08-26T02:39:19.488Z,5.60
2022-08-26T02:42:08.648Z,6.25
2022-08-26T02:44:54.802Z,5.78
2022-08-26T02:47:40.889Z,5.38
2022-08-26T02:50:27.740Z,5.68
2022-08-26T02:53:14.044Z,4.93
2022-08-26T02:56:01.259Z,6.47
2022-08-26T02:58:47.685Z,5.28
2022-08-26T03:01:34.833Z,5.22
2022-08-26T03:04:21.666Z,5.40
2022-08-26T03:07:11.867Z,5.78
2022-08-26T03:09:58.473Z,5.85
2022-08-26T03:12:48.171Z,4.53
2022-08-26T03:15:34.628Z,5.30
2022-08-26T03:18:20.613Z,4.22
2022-08-26T03:21:08.229Z,4.78
2022-08-26T03:23:54.654Z,5.05
2022-08-26T03:26:52.981Z,4.70
2022-08-26T03:29:57.838Z,5.93
2022-08-26T03:32:44.586Z,5.32
2022-08-26T03:35:31.574Z,4.95
2022-08-26T03:38:17.470Z,5.63
2022-08-26T03:41:22.340Z,5.25
2022-08-26T03:44:09.078Z,5.75
2022-08-26T03:46:55.817Z,4.93
2022-08-26T03:49:41.924Z,5.75
2022-08-26T03:52:30.932Z,4.53
2022-08-26T03:55:17.645Z,4.55
2022-08-26T03:58:03.626Z,5.07
2022-08-26T04:00:55.711Z,4.95
2022-08-26T04:04:00.880Z,5.75
2022-08-26T04:06:47.257Z,4.53
2022-08-26T04:09:35.274Z,6.00
2022-08-26T04:12:21.430Z,5.80
2022-08-26T04:15:09.396Z,5.28
2022-08-26T04:17:55.863Z,5.85
2022-08-26T04:21:02.556Z,4.82
2022-08-26T04:23:54.718Z,5.68
2022-08-26T04:26:42.734Z,5.90
2022-08-26T04:29:30.081Z,5.97
2022-08-26T04:32:16.437Z,5.18
2022-08-26T04:35:02.844Z,5.13
2022-08-26T04:37:50.913Z,5.22
2022-08-26T04:40:37.745Z,5.53
2022-08-26T04:43:28.869Z,5.78
2022-08-26T04:46:17.579Z,6.68
2022-08-26T04:49:08.571Z,5.15
2022-08-26T04:51:54.876Z,5.65
2022-08-26T04:54:41.960Z,6.10
2022-08-26T04:57:27.908Z,6.18
2022-08-26T05:00:14.555Z,6.53
2022-08-26T05:03:01.642Z,5.32
2022-08-26T05:05:48.191Z,5.97
2022-08-26T05:08:34.225Z,4.75
2022-08-26T05:11:21.091Z,5.20
2022-08-26T05:14:08.065Z,5.75
2022-08-26T05:16:54.766Z,5.32
2022-08-26T05:19:42.871Z,6.05
2022-08-26T05:22:28.887Z,7.55
2022-08-26T05:25:15.090Z,6.13
2022-08-26T05:28:01.432Z,5.85
2022-08-26T05:31:17.130Z,6.03
2022-08-26T05:34:04.797Z,6.32
2022-08-26T05:36:51.688Z,6.82
2022-08-26T05:39:41.176Z,6.22
2022-08-26T05:42:27.259Z,6.25
2022-08-26T05:45:14.457Z,6.30
2022-08-26T05:48:00.676Z,5.32
2022-08-26T05:51:06.292Z,6.28
2022-08-26T05:53:54.865Z,6.15
2022-08-26T05:56:42.346Z,5.88
2022-08-26T05:59:29.679Z,5.43
2022-08-26T06:02:18.166Z,6.70
2022-08-26T06:05:05.598Z,7.75
2022-08-26T06:08:13.619Z,7.15
2022-08-26T06:11:01.076Z,7.32
2022-08-26T06:13:47.968Z,7.15
2022-08-26T06:16:38.323Z,6.63
2022-08-26T06:19:24.430Z,7.85
2022-08-26T06:22:30.612Z,7.50
2022-08-26T06:25:35.243Z,7.82
2022-08-26T06:28:24.672Z,7.97
2022-08-26T06:31:29.880Z,7.63
2022-08-26T06:34:16.842Z,8.98
2022-08-26T06:37:03.917Z,7.53
2022-08-26T06:39:52.468Z,7.97
2022-08-26T06:42:39.701Z,7.70
2022-08-26T06:45:25.987Z,7.55
2022-08-26T06:48:16.606Z,7.35
2022-08-26T06:51:13.698Z,7.97
2022-08-26T06:54:00.618Z,9.63
2022-08-26T06:56:46.654Z,10.90
2022-08-26T06:59:33.856Z,8.40
2022-08-26T07:02:20.776Z,8.45
2022-08-26T07:05:07.218Z,7.57
2022-08-26T07:07:53.610Z,6.40
2022-08-26T07:10:39.806Z,11.77
2022-08-26T07:13:30.906Z,8.35
2022-08-26T07:16:18.283Z,7.53
2022-08-26T07:19:10.956Z,10.65
2022-08-26T07:21:57.491Z,10.13
2022-08-26T07:24:43.966Z,10.82
2022-08-26T07:27:30.049Z,8.77
2022-08-26T07:30:39.284Z,9.02
2022-08-26T07:36:13.433Z,7.55
2022-08-26T07:38:59.636Z,6.57
2022-08-26T07:41:47.449Z,7.70
2022-08-26T07:44:33.955Z,8.32
2022-08-26T07:47:24.843Z,8.23
2022-08-26T07:52:57.571Z,8.65
2022-08-26T07:56:02.183Z,8.82
2022-08-26T07:58:51.462Z,7.35
2022-08-26T08:01:38.895Z,8.48
2022-08-26T08:04:26.602Z,9.32
2022-08-26T08:07:12.843Z,9.00
2022-08-26T08:09:59.734Z,8.27
2022-08-26T08:12:46.108Z,8.98
2022-08-26T08:15:33.400Z,7.65
2022-08-26T08:18:23.405Z,8.10
2022-08-26T08:21:21.061Z,7.70
2022-08-26T08:24:08.246Z,7.45
2022-08-26T08:26:54.589Z,9.75
2022-08-26T08:29:42.160Z,6.75
2022-08-26T08:32:29.688Z,9.30
2022-08-26T08:35:16.453Z,11.38
2022-08-26T08:38:04.197Z,7.68
2022-08-26T08:40:50.595Z,7.63
2022-08-26T08:43:42.062Z,7.80
2022-08-26T08:46:28.343Z,9.63
2022-08-26T08:49:15.176Z,7.70
2022-08-26T08:52:14.408Z,8.40
2022-08-26T08:55:00.756Z,8.25
2022-08-26T08:58:16.135Z,6.53
2022-08-26T09:01:09.755Z,8.05
2022-08-26T09:04:06.653Z,7.10
2022-08-26T09:09:49.277Z,5.40
2022-08-26T09:12:37.209Z,5.78
2022-08-26T09:16:00.822Z,5.68
2022-08-26T09:18:50.148Z,6.10
2022-08-26T09:21:36.408Z,6.05
2022-08-26T09:24:23.192Z,6.25
2022-08-26T09:27:34.153Z,6.10
2022-08-26T09:30:34.926Z,6.13
2022-08-26T09:33:26.988Z,5.00
2022-08-26T09:36:15.111Z,5.47
2022-08-26T09:39:03.196Z,5.55
2022-08-26T09:42:02.098Z,4.07
2022-08-26T09:44:59.560Z,4.53
2022-08-26T09:47:45.713Z,4.70
2022-08-26T09:50:33.576Z,4.80
2022-08-26T09:53:28.739Z,4.07
2022-08-26T09:56:18.567Z,4.25
2022-08-26T09:59:11.142Z,5.07
2022-08-26T10:02:13.968Z,6.25
2022-08-26T10:05:09.302Z,5.80
2022-08-26T10:07:57.206Z,5.88
2022-08-26T10:10:46.183Z,6.28
2022-08-26T10:13:37.661Z,5.90
2022-08-26T10:16:29.917Z,6.50
2022-08-26T10:19:19.956Z,5.72
2022-08-26T10:22:13.877Z,5.10
2022-08-26T10:25:03.391Z,4.55
2022-08-26T10:28:03.424Z,4.13
2022-08-26T10:30:52.291Z,4.45
2022-08-26T10:33:41.426Z,4.35
2022-08-26T10:37:16.506Z,4.43
2022-08-26T10:40:01.167Z,4.25
2022-08-26T10:42:57.306Z,4.57
2022-08-26T10:45:59.380Z,4.70
2022-08-26T10:49:03.322Z,4.78
2022-08-26T10:51:59.119Z,3.80
2022-08-26T10:54:54.711Z,4.55
2022-08-26T10:57:50.553Z,3.38
2022-08-26T11:01:10.597Z,3.60
2022-08-26T11:04:02.239Z,3.55
2022-08-26T11:06:48.347Z,3.92
2022-08-26T11:09:45.912Z,2.97
2022-08-26T11:12:34.988Z,3.50
2022-08-26T11:15:24.372Z,3.15
2022-08-26T11:18:12.183Z,4.05
2022-08-26T11:20:58.280Z,4.22
2022-08-26T11:23:50.514Z,3.95
2022-08-26T11:26:56.094Z,3.40
2022-08-26T11:29:56.080Z,2.65
2022-08-26T11:32:43.346Z,5.13
2022-08-26T11:35:37.622Z,3.35
2022-08-26T11:38:27.396Z,2.70
2022-08-26T11:41:20.051Z,2.35
2022-08-26T11:44:09.292Z,3.08
2022-08-26T11:46:56.747Z,2.67
2022-08-26T11:49:43.088Z,2.85
2022-08-26T11:52:30.282Z,3.40
2022-08-26T11:55:19.268Z,3.63
2022-08-26T11:58:06.780Z,3.70
2022-08-26T12:00:58.140Z,3.63
2022-08-26T12:04:06.005Z,3.67
2022-08-26T12:06:53.358Z,6.50
2022-08-26T12:09:54.863Z,11.00
2022-08-26T12:12:42.894Z,4.85
2022-08-26T12:15:30.715Z,4.18
2022-08-26T12:18:18.337Z,4.40
2022-08-26T12:21:19.160Z,3.88
2022-08-26T12:24:05.374Z,3.22
2022-08-26T12:27:03.862Z,2.80
2022-08-26T12:30:06.793Z,3.17
2022-08-26T12:33:14.164Z,3.28
2022-08-26T12:36:09.262Z,3.15
2022-08-26T12:38:58.083Z,3.88
2022-08-26T12:41:58.288Z,3.40
2022-08-26T12:44:54.064Z,3.50
2022-08-26T12:47:44.121Z,3.75
2022-08-26T12:50:32.373Z,3.17
2022-08-26T12:53:19.364Z,4.10
2022-08-26T12:56:19.506Z,4.18
2022-08-26T12:59:06.394Z,3.40
2022-08-26T13:01:53.806Z,3.00
2022-08-26T13:04:44.198Z,3.03
2022-08-26T13:07:33.266Z,3.60
2022-08-26T13:10:34.335Z,2.90
2022-08-26T13:16:07.178Z,2.75
2022-08-26T13:18:55.144Z,2.83
2022-08-26T13:21:43.873Z,2.28
2022-08-26T13:24:33.381Z,3.13
2022-08-26T13:27:24.046Z,2.88
2022-08-26T13:30:10.476Z,2.67
2022-08-26T13:33:00.221Z,3.42
2022-08-26T13:35:48.189Z,3.17
2022-08-26T13:38:34.451Z,2.60
2022-08-26T13:41:41.011Z,3.50
2022-08-26T13:44:27.493Z,2.65
2022-08-26T13:47:13.582Z,3.60
2022-08-26T13:49:59.547Z,2.67
2022-08-26T13:52:49.277Z,2.75
2022-08-26T13:55:36.375Z,2.70
2022-08-26T13:58:22.330Z,2.45
2022-08-26T14:01:11.687Z,3.40
2022-08-26T14:03:58.045Z,3.30
2022-08-26T14:06:44.661Z,3.25
2022-08-26T14:09:38.218Z,2.45
2022-08-26T14:12:25.236Z,3.03
2022-08-26T14:15:12.194Z,3.63
2022-08-26T14:17:58.388Z,3.15
2022-08-26T14:20:49.607Z,2.72
2022-08-26T14:23:35.866Z,2.92
2022-08-26T14:26:29.148Z,2.55
2022-08-26T14:29:16.816Z,2.70
2022-08-26T14:32:11.469Z,2.53
2022-08-26T14:34:57.461Z,3.05
2022-08-26T14:37:43.713Z,2.45
2022-08-26T14:40:31.197Z,2.63
2022-08-26T14:43:18.277Z,2.70
2022-08-26T14:46:04.642Z,2.20
2022-08-26T14:48:50.765Z,2.85
2022-08-26T14:51:41.063Z,3.03
2022-08-26T14:54:28.857Z,2.10
2022-08-26T14:57:15.343Z,3.22
2022-08-26T15:00:06.498Z,1.95
2022-08-26T15:02:53.071Z,1.65
2022-08-26T15:05:48.005Z,2.60
2022-08-26T15:08:36.674Z,2.53
2022-08-26T15:11:22.691Z,1.77
2022-08-26T15:14:14.663Z,3.15
2022-08-26T15:17:07.935Z,2.10
2022-08-26T15:19:54.179Z,2.65
2022-08-26T15:22:42.349Z,3.05
2022-08-26T15:25:28.689Z,2.60
2022-08-26T15:28:14.987Z,2.40
2022-08-26T15:31:01.011Z,2.78
2022-08-26T15:33:50.249Z,2.15
2022-08-26T15:36:37.833Z,2.92
2022-08-26T15:39:23.884Z,3.08
2022-08-26T15:42:11.191Z,3.10
2022-08-26T15:44:57.535Z,3.22
2022-08-26T15:48:00.841Z,2.75
2022-08-26T15:50:55.008Z,3.30
2022-08-26T15:53:40.856Z,3.10
2022-08-26T15:56:28.122Z,4.20
2022-08-26T15:59:14.364Z,3.08
2022-08-26T16:02:21.528Z,3.67
2022-08-26T16:05:07.660Z,2.80
2022-08-26T16:07:54.133Z,2.72
2022-08-26T16:10:45.470Z,2.70
2022-08-26T16:13:39.984Z,3.08
2022-08-26T16:16:26.634Z,2.90
2022-08-26T16:19:13.175Z,2.60
2022-08-26T16:21:59.121Z,3.30
2022-08-26T16:24:45.422Z,3.60
2022-08-26T16:27:32.549Z,3.75
2022-08-26T16:30:21.941Z,4.00
2022-08-26T16:33:08.333Z,4.43
2022-08-26T16:35:56.613Z,4.30
2022-08-26T16:38:55.227Z,3.83
2022-08-26T16:41:41.939Z,4.18
2022-08-26T16:44:30.739Z,3.22
2022-08-26T16:47:18.473Z,3.53
2022-08-26T16:50:06.685Z,3.38
2022-08-26T16:52:54.279Z,2.90
2022-08-26T16:55:48.500Z,3.10
2022-08-26T16:58:34.842Z,3.38
2022-08-26T17:01:39.916Z,3.58
2022-08-26T17:04:46.220Z,3.10
2022-08-26T17:07:37.163Z,2.97
2022-08-26T17:10:23.830Z,3.85
2022-08-26T17:13:09.958Z,4.40
2022-08-26T17:15:58.365Z,3.95
2022-08-26T17:18:47.368Z,4.72
2022-08-26T17:21:35.281Z,3.10
2022-08-26T17:24:21.846Z,3.63
2022-08-26T17:27:08.331Z,4.32
2022-08-26T17:29:56.767Z,3.58
2022-08-26T17:32:43.665Z,3.30
2022-08-26T17:35:30.081Z,3.65
2022-08-26T17:38:16.944Z,3.38
2022-08-26T17:41:08.154Z,3.80
2022-08-26T17:43:54.513Z,4.05
2022-08-26T17:46:41.232Z,4.00
2022-08-26T17:49:27.999Z,3.38
2022-08-26T17:52:14.506Z,3.15
2022-08-26T17:55:00.606Z,3.15
2022-08-26T17:57:47.757Z,4.57
2022-08-26T18:00:45.261Z,3.88
2022-08-26T18:06:18.103Z,4.60
2022-08-26T18:09:04.545Z,4.30
2022-08-26T18:11:51.089Z,3.90
2022-08-26T18:14:40.129Z,5.38
2022-08-26T18:17:25.871Z,4.35
2022-08-26T18:20:15.167Z,3.78
2022-08-26T18:23:01.494Z,4.03
2022-08-26T18:25:48.517Z,5.63
2022-08-26T18:28:34.737Z,5.13
2022-08-26T18:31:21.826Z,5.60
2022-08-26T18:34:08.362Z,3.55
2022-08-26T18:36:54.845Z,4.07
2022-08-26T18:39:41.810Z,3.83
2022-08-26T18:42:30.785Z,4.05
2022-08-26T18:45:17.796Z,3.85
2022-08-26T18:48:03.936Z,4.28
2022-08-26T18:50:53.326Z,4.50
2022-08-26T18:53:42.092Z,4.32
2022-08-26T18:56:28.715Z,4.50
2022-08-26T18:59:15.191Z,4.55
2022-08-26T19:02:01.390Z,4.05
2022-08-26T19:04:47.390Z,4.32
2022-08-26T19:07:36.579Z,4.13
2022-08-26T19:10:25.542Z,3.83
2022-08-26T19:13:11.736Z,4.20
2022-08-26T19:15:58.169Z,3.83
2022-08-26T19:18:47.135Z,4.80
2022-08-26T19:21:34.235Z,4.07
2022-08-26T19:24:21.457Z,4.63
2022-08-26T19:27:10.630Z,4.30
2022-08-26T19:30:01.624Z,3.75
2022-08-26T19:32:51.011Z,3.20
2022-08-26T19:35:37.890Z,4.15
2022-08-26T19:38:24.206Z,4.30
2022-08-26T19:41:37.140Z,3.63
2022-08-26T19:44:43.080Z,3.55
2022-08-26T19:47:28.957Z,3.42
2022-08-26T19:50:15.733Z,4.03
2022-08-26T19:53:05.246Z,4.03
2022-08-26T19:55:54.292Z,3.55
2022-08-26T19:58:40.280Z,4.65
2022-08-26T20:01:27.251Z,5.10
2022-08-26T20:04:13.720Z,4.43
2022-08-26T20:07:00.790Z,4.82
2022-08-26T20:09:48.017Z,4.10
2022-08-26T20:12:35.740Z,4.03
2022-08-26T20:15:22.164Z,4.53
2022-08-26T20:18:28.360Z,4.95
2022-08-26T20:21:26.640Z,3.25
2022-08-26T20:24:16.603Z,3.67
2022-08-26T20:27:07.768Z,4.30
2022-08-26T20:29:55.421Z,4.47
2022-08-26T20:32:41.950Z,3.35
2022-08-26T20:35:30.807Z,3.45
2022-08-26T20:38:20.972Z,3.20
2022-08-26T20:41:08.379Z,4.30
2022-08-26T20:43:54.956Z,4.05
2022-08-26T20:46:41.262Z,3.28
2022-08-26T20:49:28.343Z,4.05
2022-08-26T20:52:14.593Z,3.28
2022-08-26T20:55:00.575Z,3.97
2022-08-26T20:57:48.099Z,3.42
2022-08-26T21:00:53.174Z,3.80
2022-08-26T21:03:40.964Z,3.53
2022-08-26T21:06:27.143Z,2.75
2022-08-26T21:09:13.784Z,3.40
2022-08-26T21:12:05.548Z,4.10
2022-08-26T21:14:51.742Z,4.03
2022-08-26T21:17:42.811Z,2.97
2022-08-26T21:21:03.210Z,3.45
2022-08-26T21:23:49.549Z,3.83
2022-08-26T21:26:35.764Z,3.65
2022-08-26T21:29:22.185Z,3.45
2022-08-26T21:32:09.452Z,3.83
2022-08-26T21:34:59.605Z,4.45
2022-08-26T21:37:47.730Z,4.38
2022-08-26T21:40:33.913Z,3.97
2022-08-26T21:43:33.701Z,4.30
2022-08-26T21:46:22.732Z,4.18
2022-08-26T21:49:10.984Z,3.92
2022-08-26T21:52:02.947Z,3.97
2022-08-26T21:57:35.630Z,3.63
2022-08-26T22:00:21.780Z,4.47
2022-08-26T22:03:13.505Z,3.80
2022-08-26T22:06:01.530Z,3.83
2022-08-26T22:08:47.604Z,3.40
2022-08-26T22:11:33.850Z,3.17
2022-08-26T22:14:30.493Z,5.03
2022-08-26T22:17:17.087Z,3.83
2022-08-26T22:20:02.846Z,4.38
2022-08-26T22:22:52.496Z,4.07
2022-08-26T22:25:39.108Z,3.30
2022-08-26T22:28:25.262Z,3.60
2022-08-26T22:31:12.042Z,4.10
2022-08-26T22:33:58.240Z,3.60
2022-08-26T22:36:47.337Z,3.20
2022-08-26T22:39:33.762Z,4.32
2022-08-26T22:42:19.745Z,4.22
2022-08-26T22:45:06.342Z,3.67
2022-08-26T22:47:54.573Z,4.25
2022-08-26T22:50:40.315Z,3.78
2022-08-26T22:53:29.840Z,4.53
2022-08-26T22:56:21.347Z,3.92
2022-08-26T22:59:08.017Z,3.28
2022-08-26T23:01:54.130Z,4.18
2022-08-26T23:04:40.283Z,4.35
2022-08-26T23:07:28.375Z,3.95
2022-08-26T23:10:14.662Z,3.53
2022-08-26T23:13:01.731Z,4.38
2022-08-26T23:15:47.909Z,3.75
2022-08-26T23:18:34.140Z,3.28
2022-08-26T23:21:20.284Z,3.35
2022-08-26T23:24:07.177Z,3.70
2022-08-26T23:26:53.239Z,3.20
2022-08-26T23:29:39.812Z,3.25
2022-08-26T23:32:26.078Z,3.95
2022-08-26T23:35:14.292Z,3.75
2022-08-26T23:38:00.843Z,4.40
2022-08-26T23:40:48.474Z,3.70
2022-08-26T23:43:35.553Z,4.38
2022-08-26T23:46:21.379Z,3.22
2022-08-26T23:49:07.547Z,3.53
2022-08-26T23:52:12.917Z,4.00
2022-08-26T23:54:59.025Z,4.28
2022-08-26T23:57:45.071Z,4.50
